Time;durP1;ratioP1;P1;durP2;ratioP2;P2;SDS_P1;SDS_P2;PMS_P1;PMS_P2;Temp;Humidity;BMP_temperature;BMP_pressure;BME280_temperature;BME280_humidity;BME280_pressure;Samples;Min_cycle;Max_cycle;Signal;HPM_P1;HPM_P2
2021/10/18 00:00:31;;;;;;;11.88;6.20;;;12.20;99.90;;;;;;6224143;22;20027;-82
2021/10/18 00:02:59;;;;;;;13.95;6.57;;;12.20;99.90;;;;;;6276046;22;20011;-81
2021/10/18 00:05:28;;;;;;;12.45;6.97;;;12.20;99.90;;;;;;6223646;22;20437;-81
2021/10/18 00:07:54;;;;;;;12.07;6.43;;;12.20;99.90;;;;;;6249285;22;20073;-81
2021/10/18 00:10:20;;;;;;;14.13;5.97;;;12.20;99.90;;;;;;6223698;22;20011;-81
2021/10/18 00:12:46;;;;;;;11.93;6.22;;;12.10;99.90;;;;;;6248125;22;20388;-81
2021/10/18 00:15:20;;;;;;;11.88;5.82;;;12.20;99.90;;;;;;6249158;22;20034;-81
2021/10/18 00:17:46;;;;;;;12.00;6.32;;;12.10;99.90;;;;;;6249279;22;20011;-82
2021/10/18 00:20:14;;;;;;;10.88;5.85;;;12.10;99.90;;;;;;6249008;22;20251;-81
2021/10/18 00:22:43;;;;;;;14.52;6.38;;;12.10;99.90;;;;;;6275835;22;20042;-81
2021/10/18 00:25:10;;;;;;;12.90;6.13;;;12.10;99.90;;;;;;6248659;22;20008;-81
2021/10/18 00:27:35;;;;;;;11.88;6.25;;;12.10;99.90;;;;;;6248496;22;20016;-81
2021/10/18 00:30:03;;;;;;;12.18;6.28;;;12.30;99.90;;;;;;6276037;22;20023;-81
2021/10/18 00:32:29;;;;;;;11.10;6.10;;;12.10;99.90;;;;;;6223554;22;20054;-81
2021/10/18 00:34:58;;;;;;;11.77;5.95;;;12.10;99.90;;;;;;6223454;22;20007;-80
2021/10/18 00:37:33;;;;;;;8.88;6.00;;;12.30;99.90;;;;;;6248137;22;20065;-80
2021/10/18 00:39:59;;;;;;;12.70;6.65;;;12.10;99.90;;;;;;6198320;22;20327;-81
2021/10/18 00:42:24;;;;;;;13.20;6.18;;;11.90;99.90;;;;;;6248276;22;20015;-80
2021/10/18 00:44:53;;;;;;;12.43;6.13;;;12.10;99.90;;;;;;6223782;22;20022;-80
2021/10/18 00:47:20;;;;;;;13.73;6.75;;;12.10;99.90;;;;;;6248837;22;20015;-81
2021/10/18 00:49:47;;;;;;;11.77;6.82;;;12.10;99.90;;;;;;6248619;22;20015;-81
2021/10/18 00:52:18;;;;;;;11.90;5.95;;;12.10;99.90;;;;;;6198677;22;20027;-81
2021/10/18 00:54:46;;;;;;;14.40;6.53;;;12.10;99.90;;;;;;6248494;22;20012;-81
2021/10/18 00:57:18;;;;;;;11.68;6.43;;;12.10;99.90;;;;;;6248280;22;20053;-81
2021/10/18 00:59:49;;;;;;;16.90;6.60;;;12.10;99.90;;;;;;6224374;22;20102;-81
2021/10/18 01:02:15;;;;;;;15.93;6.90;;;12.30;99.90;;;;;;6222833;22;20252;-81
2021/10/18 01:04:51;;;;;;;10.95;6.32;;;12.10;99.90;;;;;;6223765;22;20046;-81
2021/10/18 01:07:18;;;;;;;13.95;7.53;;;12.10;99.90;;;;;;6248356;22;20016;-81
2021/10/18 01:09:43;;;;;;;11.15;6.32;;;12.20;99.90;;;;;;6247997;22;20015;-81
2021/10/18 01:12:09;;;;;;;10.75;6.43;;;11.70;99.90;;;;;;6248678;22;20043;-80
2021/10/18 01:14:38;;;;;;;14.00;6.50;;;12.10;99.90;;;;;;6248494;22;20023;-80
2021/10/18 01:17:05;;;;;;;15.70;6.68;;;12.20;99.90;;;;;;6249143;22;20065;-80
2021/10/18 01:19:37;;;;;;;14.80;6.88;;;12.10;99.90;;;;;;6223301;22;20060;-79
2021/10/18 01:22:03;;;;;;;16.70;6.65;;;12.10;99.90;;;;;;6248611;22;20016;-80
2021/10/18 01:24:39;;;;;;;13.00;6.82;;;11.80;99.90;;;;;;6275182;22;20011;-80
2021/10/18 01:27:08;;;;;;;12.63;7.18;;;12.10;99.90;;;;;;6222823;22;20090;-80
2021/10/18 01:29:36;;;;;;;14.18;7.63;;;12.10;99.90;;;;;;6222855;22;20026;-80
2021/10/18 01:32:04;;;;;;;13.60;6.90;;;12.00;99.90;;;;;;6248496;22;20385;-80
2021/10/18 01:34:30;;;;;;;14.15;7.40;;;12.00;99.90;;;;;;6275494;22;20008;-80
2021/10/18 01:37:00;;;;;;;13.38;6.85;;;12.40;99.90;;;;;;6249159;22;20026;-80
2021/10/18 01:39:27;;;;;;;15.40;7.32;;;12.00;99.90;;;;;;6222619;22;20016;-79
2021/10/18 01:41:55;;;;;;;15.48;7.35;;;12.00;99.90;;;;;;6248806;22;20019;-80
2021/10/18 01:44:21;;;;;;;16.88;7.00;;;12.00;99.90;;;;;;6198765;22;20352;-85
2021/10/18 01:46:47;;;;;;;15.52;7.47;;;12.40;99.90;;;;;;6224086;22;20015;-86
2021/10/18 01:49:13;;;;;;;14.93;7.60;;;12.20;99.90;;;;;;6277393;22;20018;-85
2021/10/18 01:51:42;;;;;;;13.80;6.78;;;11.90;99.90;;;;;;6252018;22;20436;-86
2021/10/18 01:54:08;;;;;;;14.95;8.23;;;11.90;99.90;;;;;;6226173;22;20012;-86
2021/10/18 01:56:35;;;;;;;15.52;6.72;;;11.90;99.90;;;;;;6250742;22;20442;-85
2021/10/18 01:59:03;;;;;;;12.52;7.20;;;11.90;99.90;;;;;;6250489;22;20012;-88
2021/10/18 02:01:40;;;;;;;11.35;7.00;;;12.00;99.90;;;;;;6225897;22;20047;-87
2021/10/18 02:04:06;;;;;;;12.30;7.03;;;11.90;99.90;;;;;;6227156;22;20473;-86
2021/10/18 02:06:32;;;;;;;13.20;7.47;;;11.90;99.90;;;;;;6251043;22;20004;-87
2021/10/18 02:09:00;;;;;;;13.98;7.50;;;11.90;99.90;;;;;;6240954;22;20012;-87
2021/10/18 02:11:32;;;;;;;14.45;7.20;;;11.80;99.90;;;;;;6264081;22;20019;-85
2021/10/18 02:13:58;;;;;;;13.98;7.25;;;11.80;99.90;;;;;;6206212;22;20476;-86
2021/10/18 02:16:23;;;;;;;13.68;6.88;;;11.80;99.90;;;;;;6226300;22;20012;-86
2021/10/18 02:18:52;;;;;;;14.10;7.25;;;11.80;99.90;;;;;;6251271;22;20016;-86
2021/10/18 02:21:18;;;;;;;14.40;7.65;;;11.80;99.90;;;;;;6278591;22;20114;-86
2021/10/18 02:23:44;;;;;;;16.08;7.00;;;11.80;99.90;;;;;;6250743;22;20018;-86
2021/10/18 02:26:10;;;;;;;16.33;7.97;;;11.80;99.90;;;;;;6225563;22;20503;-86
2021/10/18 02:28:35;;;;;;;17.33;8.48;;;11.80;99.90;;;;;;6225070;22;20016;-85
2021/10/18 02:31:01;;;;;;;15.52;8.90;;;12.00;99.90;;;;;;6224547;22;20015;-81
2021/10/18 02:33:29;;;;;;;16.25;9.73;;;11.80;99.90;;;;;;6250194;22;20015;-81
2021/10/18 02:35:55;;;;;;;18.48;8.93;;;12.10;99.90;;;;;;6250708;22;20065;-80
2021/10/18 02:38:21;;;;;;;15.05;9.18;;;11.70;99.90;;;;;;6225639;22;20019;-81
2021/10/18 02:40:47;;;;;;;16.02;8.25;;;12.00;99.90;;;;;;6224451;22;20020;-80
2021/10/18 02:43:13;;;;;;;14.23;8.48;;;11.70;99.90;;;;;;6250354;22;20008;-86
2021/10/18 02:45:38;;;;;;;17.58;8.10;;;11.80;99.90;;;;;;6225280;22;20019;-86
2021/10/18 02:48:04;;;;;;;15.27;8.55;;;11.80;99.90;;;;;;6200115;22;20020;-86
2021/10/18 02:50:30;;;;;;;16.95;8.85;;;11.70;99.90;;;;;;6249903;22;20095;-86
2021/10/18 02:52:56;;;;;;;11.88;8.95;;;11.70;99.90;;;;;;6224823;22;20050;-86
2021/10/18 02:55:22;;;;;;;16.85;9.20;;;11.70;99.90;;;;;;6250552;22;20341;-86
2021/10/18 02:57:48;;;;;;;13.57;8.88;;;11.60;99.90;;;;;;6198923;22;20094;-86
2021/10/18 03:00:14;;;;;;;17.27;9.27;;;11.60;99.90;;;;;;6249470;22;20015;-86
2021/10/18 03:02:40;;;;;;;17.17;8.55;;;10.90;99.90;;;;;;6225148;22;20350;-85
2021/10/18 03:05:06;;;;;;;19.17;9.70;;;11.60;99.90;;;;;;6225408;22;20019;-86
2021/10/18 03:07:32;;;;;;;13.60;8.68;;;11.60;99.90;;;;;;6224958;22;20346;-86
2021/10/18 03:10:01;;;;;;;16.73;9.20;;;11.60;99.90;;;;;;6199565;22;20019;-86
2021/10/18 03:12:29;;;;;;;11.80;8.05;;;11.40;99.90;;;;;;6276709;22;20548;-86
2021/10/18 03:14:55;;;;;;;16.08;9.32;;;11.70;99.90;;;;;;6225401;22;20016;-86
2021/10/18 03:17:27;;;;;;;15.10;8.98;;;11.80;99.90;;;;;;6250057;22;20162;-81
2021/10/18 03:19:55;;;;;;;18.52;8.98;;;11.70;99.90;;;;;;6249492;22;20016;-81
2021/10/18 03:22:20;;;;;;;14.48;8.73;;;11.50;99.90;;;;;;6249941;22;20021;-81
2021/10/18 03:24:48;;;;;;;18.23;9.90;;;11.40;99.90;;;;;;6249558;22;20456;-81
2021/10/18 03:27:14;;;;;;;15.93;9.07;;;12.00;99.90;;;;;;6223816;22;20082;-81
2021/10/18 03:29:43;;;;;;;17.10;8.73;;;11.40;99.90;;;;;;6249195;22;20012;-80
2021/10/18 03:32:09;;;;;;;14.60;8.80;;;11.40;99.90;;;;;;6249226;22;20078;-81
2021/10/18 03:34:35;;;;;;;14.95;9.90;;;11.40;99.90;;;;;;6199634;22;20008;-80
2021/10/18 03:37:01;;;;;;;17.85;9.15;;;11.40;99.90;;;;;;6276548;22;20022;-80
2021/10/18 03:39:27;;;;;;;15.52;8.85;;;11.30;99.90;;;;;;6224112;22;20019;-80
2021/10/18 03:41:55;;;;;;;15.77;9.07;;;11.30;99.90;;;;;;6249843;22;20018;-85
2021/10/18 03:44:20;;;;;;;19.17;9.25;;;11.30;99.90;;;;;;6250652;22;20015;-85
2021/10/18 03:46:47;;;;;;;20.00;9.25;;;11.30;99.90;;;;;;6200033;22;20069;-85
2021/10/18 03:49:13;;;;;;;16.52;9.10;;;11.30;99.90;;;;;;6225307;22;20532;-87
2021/10/18 03:51:40;;;;;;;16.63;9.60;;;11.20;99.90;;;;;;6249770;22;20012;-86
2021/10/18 03:54:06;;;;;;;16.90;9.80;;;11.20;99.90;;;;;;6200190;22;20019;-86
2021/10/18 03:56:32;;;;;;;15.88;9.63;;;11.10;99.90;;;;;;6250058;22;20334;-86
2021/10/18 03:58:57;;;;;;;17.30;9.50;;;11.40;99.90;;;;;;6224993;22;20012;-86
2021/10/18 04:01:23;;;;;;;15.35;9.73;;;11.20;99.90;;;;;;6250463;22;20086;-85
2021/10/18 04:03:49;;;;;;;19.75;9.93;;;11.10;99.90;;;;;;6199901;22;20073;-85
2021/10/18 04:06:15;;;;;;;17.10;9.45;;;11.80;99.90;;;;;;6224435;22;20008;-85
2021/10/18 04:08:42;;;;;;;19.30;9.63;;;11.30;99.90;;;;;;6200485;22;20487;-87
2021/10/18 04:11:08;;;;;;;19.27;9.90;;;11.10;99.90;;;;;;6225270;22;20008;-86
2021/10/18 04:13:34;;;;;;;16.65;9.63;;;11.10;99.90;;;;;;6224528;22;20326;-86
2021/10/18 04:15:59;;;;;;;15.45;9.95;;;11.10;99.90;;;;;;6224751;22;20011;-86
2021/10/18 04:18:26;;;;;;;24.02;10.48;;;11.10;99.90;;;;;;6249834;22;20102;-86
2021/10/18 04:20:52;;;;;;;17.55;9.75;;;11.10;99.90;;;;;;6276647;22;20018;-86
2021/10/18 04:23:21;;;;;;;19.83;10.43;;;11.10;99.90;;;;;;6249965;22;20058;-86
2021/10/18 04:25:47;;;;;;;17.02;10.07;;;11.10;99.90;;;;;;6250663;22;20019;-86
2021/10/18 04:28:13;;;;;;;17.60;9.95;;;11.10;99.90;;;;;;6249668;22;20026;-87
2021/10/18 04:30:41;;;;;;;20.63;10.40;;;11.10;99.90;;;;;;6249737;22;20042;-86
2021/10/18 04:33:07;;;;;;;16.30;10.00;;;11.10;99.90;;;;;;6249623;22;20012;-86
2021/10/18 04:35:33;;;;;;;15.82;10.25;;;11.10;99.90;;;;;;6249759;22;20418;-86
2021/10/18 04:38:01;;;;;;;18.42;10.65;;;11.10;99.90;;;;;;6224403;22;20394;-86
2021/10/18 04:40:30;;;;;;;15.60;10.80;;;10.90;99.90;;;;;;6199186;22;20027;-85
2021/10/18 04:42:55;;;;;;;17.90;10.70;;;11.10;99.90;;;;;;6224235;22;20439;-87
2021/10/18 04:45:22;;;;;;;16.38;10.65;;;11.10;99.90;;;;;;6223722;22;20054;-87
2021/10/18 04:47:50;;;;;;;21.65;11.13;;;11.10;99.90;;;;;;6224327;22;20047;-86
2021/10/18 04:50:18;;;;;;;20.23;10.75;;;11.10;99.90;;;;;;6224809;22;20063;-86
2021/10/18 04:52:47;;;;;;;20.98;10.90;;;11.30;99.90;;;;;;6224441;22;20481;-87
2021/10/18 04:55:16;;;;;;;16.35;10.70;;;11.00;99.90;;;;;;6199988;22;20368;-87
2021/10/18 04:57:53;;;;;;;23.50;11.07;;;11.00;99.90;;;;;;6225212;22;20492;-86
2021/10/18 05:00:25;;;;;;;19.77;11.27;;;11.30;99.90;;;;;;6237413;22;20012;-86
2021/10/18 05:02:55;;;;;;;18.75;11.18;;;11.00;99.90;;;;;;6257188;22;20015;-85
2021/10/18 05:05:22;;;;;;;19.65;11.45;;;11.00;99.90;;;;;;6225475;22;20016;-86
2021/10/18 05:08:20;;;;;;;15.93;11.38;;;10.90;99.90;;;;;;6276421;22;20022;-87
2021/10/18 05:10:46;;;;;;;19.48;11.93;;;10.90;99.90;;;;;;6222704;22;20433;-82
2021/10/18 05:13:16;;;;;;;18.83;11.18;;;10.90;99.90;;;;;;6199137;22;20015;-85
2021/10/18 05:15:44;;;;;;;18.48;11.13;;;11.30;99.90;;;;;;6216563;22;20011;-80
2021/10/18 05:18:10;;;;;;;23.88;12.15;;;10.90;99.90;;;;;;6222994;22;20050;-83
2021/10/18 05:20:36;;;;;;;17.65;11.90;;;10.90;99.90;;;;;;6275836;22;20058;-84
2021/10/18 05:23:02;;;;;;;19.60;12.02;;;10.80;99.90;;;;;;6248541;22;20012;-77
2021/10/18 05:25:29;;;;;;;18.65;11.52;;;11.00;99.90;;;;;;6247897;22;20012;-78
2021/10/18 05:27:55;;;;;;;19.67;11.70;;;10.80;99.90;;;;;;6275024;22;20012;-79
2021/10/18 05:30:24;;;;;;;18.88;12.15;;;10.80;99.90;;;;;;6276048;22;20008;-84
2021/10/18 05:32:51;;;;;;;20.83;12.27;;;10.70;99.90;;;;;;6275451;22;20079;-79
2021/10/18 05:35:17;;;;;;;22.15;12.32;;;10.70;99.90;;;;;;6223451;22;20038;-80
2021/10/18 05:37:45;;;;;;;19.00;12.20;;;10.80;99.90;;;;;;6248011;22;20019;-80
2021/10/18 05:40:13;;;;;;;19.33;12.25;;;10.70;99.90;;;;;;6248356;22;20523;-79
2021/10/18 05:42:39;;;;;;;19.33;12.43;;;10.70;99.90;;;;;;6248751;22;20015;-79
2021/10/18 05:45:06;;;;;;;23.60;12.20;;;10.70;99.90;;;;;;6247619;22;20019;-80
2021/10/18 05:47:31;;;;;;;17.58;12.38;;;10.70;99.90;;;;;;6247277;22;20019;-78
2021/10/18 05:50:09;;;;;;;21.67;12.23;;;10.70;99.90;;;;;;6223359;22;20011;-80
2021/10/18 05:52:35;;;;;;;18.83;12.95;;;11.00;99.90;;;;;;6275160;22;20503;-81
2021/10/18 05:55:00;;;;;;;22.02;12.48;;;10.40;99.90;;;;;;6223219;22;20012;-75
2021/10/18 05:57:26;;;;;;;24.70;13.02;;;10.70;99.90;;;;;;6247474;22;20039;-76
2021/10/18 05:59:52;;;;;;;23.30;14.13;;;10.70;99.90;;;;;;6221311;22;20015;-76
2021/10/18 06:02:17;;;;;;;21.63;13.20;;;10.80;99.90;;;;;;6247781;22;20015;-75
2021/10/18 06:04:46;;;;;;;22.23;13.65;;;10.70;99.90;;;;;;6248652;22;20016;-76
2021/10/18 06:07:48;;;;;;;22.35;12.88;;;10.70;99.90;;;;;;6224663;22;20433;-76
2021/10/18 06:10:15;;;;;;;23.20;13.52;;;11.10;99.90;;;;;;6197611;22;20042;-75
2021/10/18 06:12:42;;;;;;;20.90;12.82;;;10.70;99.90;;;;;;6248870;22;20011;-75
2021/10/18 06:15:08;;;;;;;23.92;13.18;;;10.70;99.90;;;;;;6248692;22;20065;-75
2021/10/18 06:17:35;;;;;;;21.30;14.65;;;10.70;99.90;;;;;;6197651;22;20015;-75
2021/10/18 06:20:00;;;;;;;24.15;14.07;;;10.70;99.90;;;;;;6248252;22;20101;-75
2021/10/18 06:22:26;;;;;;;22.52;14.10;;;10.70;99.90;;;;;;6248519;22;20083;-75
2021/10/18 06:24:55;;;;;;;26.85;15.15;;;10.70;99.90;;;;;;6198163;22;20023;-75
2021/10/18 06:27:21;;;;;;;25.15;14.98;;;11.30;99.90;;;;;;6248391;22;20030;-75
2021/10/18 06:29:47;;;;;;;23.70;14.65;;;10.70;99.90;;;;;;6248452;22;20026;-75
2021/10/18 06:32:13;;;;;;;22.40;14.98;;;10.60;99.90;;;;;;6198343;22;20439;-75
2021/10/18 06:34:39;;;;;;;19.23;13.95;;;10.80;99.90;;;;;;6248070;22;20361;-81
2021/10/18 06:37:11;;;;;;;24.85;15.27;;;10.70;99.90;;;;;;6250436;22;20302;-81
2021/10/18 06:39:37;;;;;;;24.95;14.35;;;10.80;99.90;;;;;;6251056;22;20098;-82
2021/10/18 06:42:03;;;;;;;24.50;15.00;;;10.80;99.90;;;;;;6250424;22;20036;-82
2021/10/18 06:44:32;;;;;;;24.15;16.63;;;10.80;99.90;;;;;;6225640;22;20015;-81
2021/10/18 06:46:57;;;;;;;22.20;15.48;;;10.80;99.90;;;;;;6277336;22;20078;-81
2021/10/18 06:49:24;;;;;;;25.30;16.45;;;11.40;99.90;;;;;;6224469;22;20381;-82
2021/10/18 06:51:55;;;;;;;27.58;15.20;;;11.20;99.90;;;;;;6199613;22;20117;-82
2021/10/18 06:54:22;;;;;;;26.92;15.35;;;10.80;99.90;;;;;;6250214;22;20145;-81
2021/10/18 06:56:48;;;;;;;31.00;16.13;;;10.90;99.90;;;;;;6249777;22;20008;-82
2021/10/18 06:59:15;;;;;;;25.27;15.20;;;10.90;99.90;;;;;;6277562;22;20341;-82
2021/10/18 07:01:42;;;;;;;26.17;15.77;;;10.90;99.90;;;;;;6250082;22;20090;-82
2021/10/18 07:04:08;;;;;;;29.25;15.90;;;10.90;99.90;;;;;;6277051;22;20004;-82
2021/10/18 07:06:34;;;;;;;28.65;16.70;;;11.00;99.90;;;;;;6249928;22;20046;-81
2021/10/18 07:09:00;;;;;;;33.50;16.70;;;11.00;99.90;;;;;;6249470;22;20517;-81
2021/10/18 07:11:26;;;;;;;25.67;16.63;;;11.50;99.90;;;;;;6249646;22;20300;-82
2021/10/18 07:13:53;;;;;;;26.88;16.00;;;11.00;99.90;;;;;;6277003;22;20020;-75
2021/10/18 07:16:19;;;;;;;25.95;15.40;;;11.10;99.90;;;;;;6224533;22;20275;-75
2021/10/18 07:18:45;;;;;;;23.30;15.88;;;11.20;99.90;;;;;;6249900;22;20069;-76
2021/10/18 07:21:11;;;;;;;25.85;14.85;;;11.20;99.90;;;;;;6249654;22;20010;-75
2021/10/18 07:23:37;;;;;;;22.70;14.93;;;11.10;99.90;;;;;;6249628;22;20086;-75
2021/10/18 07:26:04;;;;;;;24.23;16.08;;;11.10;99.90;;;;;;6249467;22;20066;-75
2021/10/18 07:28:30;;;;;;;25.92;16.00;;;11.20;99.90;;;;;;6224718;22;20015;-75
2021/10/18 07:30:58;;;;;;;25.70;16.17;;;11.30;99.90;;;;;;6249626;22;20015;-75
2021/10/18 07:33:24;;;;;;;24.58;16.05;;;11.20;99.90;;;;;;6250574;22;20019;-76
2021/10/18 07:35:50;;;;;;;24.63;16.38;;;11.30;99.90;;;;;;6276745;22;20054;-76
2021/10/18 07:38:18;;;;;;;23.35;15.27;;;11.30;99.90;;;;;;6249121;22;20062;-76
2021/10/18 07:40:44;;;;;;;27.15;15.90;;;11.20;99.90;;;;;;6250005;22;20023;-76
2021/10/18 07:43:10;;;;;;;26.58;16.42;;;11.40;99.90;;;;;;6249432;22;20015;-76
2021/10/18 07:45:37;;;;;;;24.25;16.45;;;11.30;99.90;;;;;;6249505;22;20026;-76
2021/10/18 07:48:03;;;;;;;23.88;16.40;;;11.30;99.90;;;;;;6222952;22;20020;-76
2021/10/18 07:50:29;;;;;;;26.20;16.73;;;11.40;99.90;;;;;;6249018;22;20008;-76
2021/10/18 07:52:54;;;;;;;27.02;17.02;;;11.60;99.90;;;;;;6276587;22;20062;-76
2021/10/18 07:55:20;;;;;;;27.42;17.42;;;11.50;99.90;;;;;;6249625;22;20058;-75
2021/10/18 07:57:52;;;;;;;22.98;16.58;;;11.50;99.90;;;;;;6276243;22;20028;-76
2021/10/18 08:00:18;;;;;;;27.30;16.67;;;11.50;99.90;;;;;;6276498;22;20338;-76
2021/10/18 08:02:44;;;;;;;24.48;17.02;;;11.50;99.90;;;;;;6276760;22;20011;-76
2021/10/18 08:05:16;;;;;;;26.17;16.30;;;11.50;99.90;;;;;;6223865;22;20023;-76
2021/10/18 08:07:45;;;;;;;28.33;16.92;;;11.50;99.90;;;;;;6224177;22;20015;-76
2021/10/18 08:10:13;;;;;;;24.27;17.08;;;11.60;99.90;;;;;;6276415;22;20011;-75
2021/10/18 08:12:38;;;;;;;27.75;17.65;;;11.60;99.90;;;;;;6249085;22;20456;-76
2021/10/18 08:15:04;;;;;;;29.70;17.23;;;11.60;99.90;;;;;;6276113;22;20011;-76
2021/10/18 08:17:30;;;;;;;25.73;16.63;;;11.70;99.90;;;;;;6249131;22;20095;-75
2021/10/18 08:19:56;;;;;;;28.20;17.00;;;11.70;99.90;;;;;;6223839;22;20036;-76
2021/10/18 08:22:22;;;;;;;29.65;17.30;;;11.90;99.90;;;;;;6275854;22;20353;-76
2021/10/18 08:24:47;;;;;;;25.38;16.70;;;11.80;99.90;;;;;;6276075;22;20452;-76
2021/10/18 08:27:13;;;;;;;26.50;17.13;;;11.90;99.90;;;;;;6249078;22;20011;-75
2021/10/18 08:29:39;;;;;;;29.05;17.52;;;11.80;99.90;;;;;;6248931;22;20016;-75
2021/10/18 08:32:05;;;;;;;27.60;17.63;;;11.80;99.90;;;;;;6223740;22;20030;-75
2021/10/18 08:34:31;;;;;;;26.02;17.45;;;11.90;99.90;;;;;;6276117;22;20385;-75
2021/10/18 08:36:56;;;;;;;29.38;18.20;;;11.90;99.90;;;;;;6249209;22;20016;-75
2021/10/18 08:42:12;;;;;;;26.65;17.52;;;11.90;99.90;;;;;;6248776;22;20019;-75
2021/10/18 08:44:38;;;;;;;28.67;19.23;;;11.90;99.90;;;;;;6250049;22;20014;-75
2021/10/18 08:47:04;;;;;;;26.90;18.60;;;12.00;99.90;;;;;;6248771;22;20016;-75
2021/10/18 08:49:31;;;;;;;29.77;18.30;;;12.00;99.90;;;;;;6276054;22;20043;-75
2021/10/18 08:51:57;;;;;;;32.22;19.27;;;12.00;99.90;;;;;;6249048;22;20007;-75
2021/10/18 08:54:22;;;;;;;29.90;18.23;;;12.40;99.90;;;;;;6248801;22;20040;-75
2021/10/18 08:56:51;;;;;;;28.08;18.70;;;12.10;99.90;;;;;;6197717;22;20008;-75
2021/10/18 08:59:17;;;;;;;27.10;19.02;;;12.10;99.90;;;;;;6248204;22;20034;-75
2021/10/18 09:01:51;;;;;;;27.92;19.13;;;12.10;99.90;;;;;;6223578;22;20438;-75
2021/10/18 09:04:16;;;;;;;24.58;18.15;;;12.10;99.90;;;;;;6276134;22;20018;-75
2021/10/18 09:06:47;;;;;;;22.65;17.98;;;12.10;99.90;;;;;;6223626;22;20410;-75
2021/10/18 09:09:13;;;;;;;26.33;16.98;;;12.20;99.90;;;;;;6276034;22;20022;-75
2021/10/18 09:11:40;;;;;;;27.77;18.88;;;12.20;99.90;;;;;;6248032;22;20023;-75
2021/10/18 09:14:07;;;;;;;26.73;18.58;;;12.30;99.90;;;;;;6223386;22;20095;-75
2021/10/18 09:16:35;;;;;;;27.42;18.90;;;12.20;99.90;;;;;;6223507;22;20012;-75
2021/10/18 09:19:01;;;;;;;29.15;18.48;;;12.30;99.90;;;;;;6248458;22;20438;-75
2021/10/18 09:21:32;;;;;;;26.65;18.92;;;12.30;99.90;;;;;;6222763;22;20039;-75
2021/10/18 09:24:00;;;;;;;27.48;18.77;;;12.50;99.90;;;;;;6275828;22;20081;-75
2021/10/18 09:26:26;;;;;;;27.77;19.73;;;12.30;99.90;;;;;;6223920;22;20015;-75
2021/10/18 09:28:54;;;;;;;28.20;19.45;;;12.50;99.90;;;;;;6275535;22;20062;-75
2021/10/18 09:31:20;;;;;;;28.25;19.25;;;12.40;99.90;;;;;;6248709;22;20016;-75
2021/10/18 09:33:50;;;;;;;28.38;19.58;;;12.40;99.90;;;;;;6223410;22;20338;-75
2021/10/18 09:36:23;;;;;;;30.20;20.05;;;12.40;99.90;;;;;;6275716;22;20085;-76
2021/10/18 09:38:49;;;;;;;25.45;19.75;;;12.50;99.90;;;;;;6248433;22;20015;-80
2021/10/18 09:41:23;;;;;;;29.67;19.67;;;12.50;99.90;;;;;;6248571;22;20022;-80
2021/10/18 09:43:56;;;;;;;30.58;20.48;;;12.50;99.90;;;;;;6248386;22;20452;-81
2021/10/18 09:46:36;;;;;;;25.50;19.48;;;12.60;99.90;;;;;;6223264;22;20111;-80
2021/10/18 10:53:30;;;;;;;28.75;19.60;;;13.20;99.90;;;;;;6250180;22;20054;-80
2021/10/18 10:55:59;;;;;;;30.92;19.65;;;13.20;99.90;;;;;;6249814;22;20026;-80
2021/10/18 10:58:33;;;;;;;34.67;20.25;;;13.20;99.90;;;;;;6249996;22;20008;-81
2021/10/18 11:01:00;;;;;;;29.83;18.98;;;13.30;99.90;;;;;;6248685;22;20022;-80
2021/10/18 11:03:46;;;;;;;28.38;18.88;;;13.30;99.90;;;;;;6277047;22;20338;-81
2021/10/18 11:06:15;;;;;;;28.20;18.45;;;13.30;99.90;;;;;;6249008;22;20027;-81
2021/10/18 11:08:45;;;;;;;26.85;18.10;;;13.50;99.90;;;;;;6277037;22;20042;-81
2021/10/18 11:11:15;;;;;;;24.98;17.40;;;13.40;99.90;;;;;;6248889;22;20086;-80
2021/10/18 11:13:51;;;;;;;24.67;18.15;;;13.40;99.90;;;;;;6276926;22;20031;-80
2021/10/18 11:16:21;;;;;;;27.33;18.17;;;13.50;99.90;;;;;;6277169;22;20008;-81
2021/10/18 11:18:50;;;;;;;27.58;18.02;;;13.50;99.90;;;;;;6249370;22;20012;-80
2021/10/18 11:21:19;;;;;;;24.58;17.67;;;13.50;99.90;;;;;;6249144;22;20091;-81
2021/10/18 11:24:09;;;;;;;29.60;18.50;;;13.60;99.90;;;;;;6276860;22;20050;-80
2021/10/18 11:26:39;;;;;;;28.65;18.20;;;13.60;99.90;;;;;;6223599;22;20007;-80
2021/10/18 11:29:07;;;;;;;24.38;17.92;;;13.60;99.90;;;;;;6276854;22;20326;-80
2021/10/18 11:31:44;;;;;;;25.67;17.80;;;13.60;99.90;;;;;;6223952;22;20019;-80
2021/10/18 11:34:20;;;;;;;27.08;18.35;;;13.70;99.90;;;;;;6249219;22;20353;-81
2021/10/18 11:36:48;;;;;;;24.83;17.33;;;13.70;99.90;;;;;;6249729;22;20011;-80
2021/10/18 11:39:21;;;;;;;23.65;17.52;;;13.70;99.90;;;;;;6249457;22;20011;-80
2021/10/18 11:41:59;;;;;;;26.55;18.33;;;13.80;99.90;;;;;;6249637;22;20019;-81
2021/10/18 11:44:47;;;;;;;25.15;17.75;;;13.80;99.90;;;;;;6248669;22;20011;-81
2021/10/18 11:47:33;;;;;;;25.08;17.80;;;13.90;99.90;;;;;;6276320;22;20047;-80
2021/10/18 11:50:05;;;;;;;;;;;13.90;99.90;;;;;;6249775;22;20012;-80
2021/10/18 11:52:38;;;;;;;25.23;16.65;;;13.80;99.90;;;;;;6276773;22;19946;-80
2021/10/18 11:55:07;;;;;;;25.38;17.98;;;13.70;99.90;;;;;;6249188;22;20011;-81
2021/10/18 11:57:33;;;;;;;24.92;16.23;;;13.80;99.90;;;;;;6223855;22;20015;-80
2021/10/18 12:00:00;;;;;;;25.27;18.17;;;13.80;99.90;;;;;;6222666;22;20138;-80
2021/10/18 12:02:26;;;;;;;27.38;18.30;;;13.80;99.90;;;;;;6276514;22;20022;-80
2021/10/18 12:04:57;;;;;;;23.05;16.92;;;13.80;99.90;;;;;;6249074;22;20094;-80
2021/10/18 12:07:46;;;;;;;23.92;16.98;;;13.90;99.90;;;;;;6276500;22;20019;-75
2021/10/18 12:10:20;;;;;;;25.52;17.15;;;13.80;99.90;;;;;;6222720;22;20073;-75
2021/10/18 12:13:07;;;;;;;27.60;17.35;;;13.90;99.90;;;;;;6223421;22;20015;-75
2021/10/18 12:15:37;;;;;;;26.88;17.80;;;14.00;99.90;;;;;;6228917;22;20493;-75
2021/10/18 12:18:03;;;;;;;25.73;16.85;;;13.90;99.90;;;;;;6223765;22;20019;-76
2021/10/18 12:20:32;;;;;;;24.48;16.23;;;13.90;99.90;;;;;;6248501;22;20012;-76
2021/10/18 12:23:15;;;;;;;24.67;17.30;;;13.90;99.90;;;;;;6248606;22;20024;-76
2021/10/18 12:25:51;;;;;;;27.92;17.20;;;14.00;99.90;;;;;;6248974;22;20016;-75
2021/10/18 12:28:29;;;;;;;22.15;16.67;;;14.00;99.90;;;;;;6248767;22;20011;-76
2021/10/18 12:30:56;;;;;;;24.75;16.92;;;14.00;99.90;;;;;;6248111;22;20023;-75
2021/10/18 12:33:33;;;;;;;25.50;16.63;;;14.00;99.90;;;;;;6247959;22;20019;-75
2021/10/18 12:35:59;;;;;;;21.20;15.77;;;14.10;99.90;;;;;;6248448;22;20015;-75
2021/10/18 12:38:29;;;;;;;23.10;15.93;;;14.10;99.90;;;;;;6223781;22;20450;-75
2021/10/18 12:41:18;;;;;;;22.33;15.32;;;14.10;99.90;;;;;;6275987;22;20012;-75
2021/10/18 12:43:45;;;;;;;24.73;16.15;;;14.10;99.90;;;;;;6276061;22;20338;-76
2021/10/18 12:46:23;;;;;;;29.33;16.90;;;14.10;99.90;;;;;;6248889;22;20014;-75
2021/10/18 12:48:55;;;;;;;22.58;15.40;;;14.10;99.90;;;;;;6248361;22;20083;-75
2021/10/18 12:51:42;;;;;;;21.67;15.20;;;14.20;99.90;;;;;;6223057;22;20434;-75
2021/10/18 12:54:19;;;;;;;21.27;15.00;;;14.10;99.90;;;;;;6248330;22;20091;-75
2021/10/18 12:56:58;;;;;;;26.15;15.68;;;14.20;99.90;;;;;;6248838;22;20506;-76
2021/10/18 12:59:23;;;;;;;20.75;15.27;;;14.10;99.90;;;;;;6275836;22;20367;-75
2021/10/18 13:02:15;;;;;;;26.48;16.85;;;14.10;99.90;;;;;;6198102;22;20007;-75
2021/10/18 13:05:00;;;;;;;26.67;16.42;;;14.10;99.90;;;;;;6224000;22;20438;-75
2021/10/18 13:07:26;;;;;;;24.83;17.15;;;14.10;99.90;;;;;;6248148;22;20019;-80
2021/10/18 13:09:51;;;;;;;27.98;16.40;;;14.10;99.90;;;;;;6248478;22;20123;-81
2021/10/18 13:12:17;;;;;;;25.80;16.02;;;14.10;99.90;;;;;;6249073;22;20499;-81
2021/10/18 13:14:44;;;;;;;27.10;16.33;;;14.10;99.90;;;;;;6248635;22;20687;-81
2021/10/18 13:17:09;;;;;;;24.63;16.33;;;14.10;99.90;;;;;;6276146;22;20012;-81
2021/10/18 13:19:35;;;;;;;23.83;15.55;;;14.20;99.90;;;;;;6275790;22;20454;-81
2021/10/18 13:22:01;;;;;;;21.33;15.32;;;14.10;99.90;;;;;;6248266;22;20047;-76
2021/10/18 13:24:27;;;;;;;21.00;15.70;;;14.10;99.90;;;;;;6275587;22;20034;-76
2021/10/18 13:26:58;;;;;;;22.33;15.13;;;14.10;99.90;;;;;;6248398;22;20461;-75
2021/10/18 13:29:24;;;;;;;22.80;15.18;;;14.10;99.90;;;;;;6198856;22;20015;-76
2021/10/18 13:31:50;;;;;;;28.10;16.50;;;14.10;99.90;;;;;;6223255;22;20509;-77
2021/10/18 13:34:16;;;;;;;23.23;15.88;;;14.10;99.90;;;;;;6223443;22;20266;-76
2021/10/18 13:36:45;;;;;;;23.83;15.55;;;14.10;99.90;;;;;;6223284;22;20083;-75
2021/10/18 13:39:11;;;;;;;24.75;15.60;;;14.10;99.90;;;;;;6248227;22;20011;-76
2021/10/18 13:41:37;;;;;;;22.20;16.10;;;14.20;99.90;;;;;;6222906;22;20016;-75
2021/10/18 13:44:06;;;;;;;23.65;15.20;;;14.20;99.90;;;;;;6249011;22;20334;-75